Advance, IN (46102)

11:34 AM EST on February 13, 2016 (GMT -0500)
Ash Street | | Change Station
CLOSE
Current Station
Personal Weather Station
Location: Jamestown, IN
Elevation: 974 ft
Nearby Weather Stations

Elev 974 ft 39.93 °N, 86.63 °W | Updated 0 second ago

Clear
Clear
15.4 °F
Feels Like 8 °F
N
5.0
Wind Variable Wind from South
Gusts 9.0 mph

Today
High -- | Low -- °F
--% Chance of Precip.
Yesterday
High -- | Low -- °F
Precip. -- in
Pressure 30.56 in
Visibility 10.0 miles
Clouds Clear
Windchill 8 °F
Dew Point -3 °F
Humidity 44%
Rainfall 0.00 in
Snow Depth Not available.
7:42 AM 6:19 PM
Waxing Crescent, 32% visible
METAR KTYQ 131615Z AUTO 32005KT 10SM CLR M11/M18 A3056 RMK AO2 T11081176
Pressure 30.56 in
Visibility 10.0 miles
Clouds Clear
Windchill 8 °F
Dew Point -3 °F
Humidity 44%
Rainfall 0.00 in
Snow Depth Not available.
7:42 AM 6:19 PM
Waxing Crescent, 32% visible
METAR KTYQ 131615Z AUTO 32005KT 10SM CLR M11/M18 A3056 RMK AO2 T11081176

10-Day Weather Forecast

Almanac

Astronomy

Feb. 13, 2016 Rise Set
Actual Time
Civil Twilight
Nautical Twilight
Astronomical Twilight
Moon
Length of Visible Light
Length of Day
Tomorrow will be .
, % of the Moon is Illuminated

Today's Extremes

State Highs State Lows

Community

WunderPhotos

Upload Photos

1,892,600 photos uploaded!

WunderBlog® & News

Nearby

Air Quality

  Air Quality AQ Index Pollutant
Not available.

Snow Depth

Station Depth Elevation

Earthquake Activity

City Distance Mag. Time & Date
Minimum magnitude displayed is 2.5.

Coastal Water Temperatures

Place Temperature

Stations

Nearby Weather Stations

Station Location Temp. Windchill Dew Point Humidity Wind Precip. Elev Updated Type
                   

Watches & Warnings

There are currently no watches in effect.